Harrison, South Dakota
Current Conditions -  °F | °C
As of 4:53 PM on Wednesday 22 Oct 2014 (Local Time) from KMHE Reporting Station
Overcast Overcast  
Wind Chill: 58°   Ceiling: 5500
Heat Index: 58°   Visibility: 10mi
Dew Point: 55°   Wind: 10mph
Humidity: 90%   Direction: 270°W
Pressure: 29.96"   Gusts: NA
Location:  43.43°N, 98.53°W
Report Text: KMHE 222153Z AUTO 27009KT 10SM OVC055 14/13 A2996 RMK AO2 SLP145 T01440128 $
Loading
Personal Weather Stations






























Interactive Weather Map
Tropical Storm Tracking
New forecast layout! Learn more

10-Day Weather Forecast

Advertisements
Track Severe Weather on mobile